sensor_id;sensor_type;location;lat;lon;timestamp;pressure;altitude;pressure_sealevel;temperature;humidity
64827;BME280;51265;53.972;12.286;2024-02-23T00:01:44;97283.28;;;9.04;100.00
64827;BME280;51265;53.972;12.286;2024-02-23T00:04:11;97273.38;;;8.95;100.00
64827;BME280;51265;53.972;12.286;2024-02-23T00:06:38;97275.69;;;8.93;100.00
64827;BME280;51265;53.972;12.286;2024-02-23T00:09:04;97283.59;;;8.98;100.00
64827;BME280;51265;53.972;12.286;2024-02-23T00:11:31;97278.94;;;9.03;100.00
64827;BME280;51265;53.972;12.286;2024-02-23T00:13:59;97297.03;;;9.04;100.00
64827;BME280;51265;53.972;12.286;2024-02-23T00:16:25;97309.25;;;9.10;100.00
64827;BME280;51265;53.972;12.286;2024-02-23T00:18:55;97290.75;;;9.07;100.00
64827;BME280;51265;53.972;12.286;2024-02-23T00:21:21;97299.75;;;9.04;100.00
64827;BME280;51265;53.972;12.286;2024-02-23T00:23:47;97310.75;;;9.04;100.00
64827;BME280;51265;53.972;12.286;2024-02-23T00:26:13;97309.56;;;9.05;100.00
64827;BME280;51265;53.972;12.286;2024-02-23T00:28:39;97314.22;;;9.01;100.00
64827;BME280;51265;53.972;12.286;2024-02-23T00:31:06;97304.09;;;9.05;100.00
64827;BME280;51265;53.972;12.286;2024-02-23T00:33:32;97291.63;;;9.11;100.00
64827;BME280;51265;53.972;12.286;2024-02-23T00:35:59;97303.44;;;9.15;100.00
64827;BME280;51265;53.972;12.286;2024-02-23T00:38:25;97294.69;;;9.06;100.00
64827;BME280;51265;53.972;12.286;2024-02-23T00:40:51;97295.06;;;9.04;100.00
64827;BME280;51265;53.972;12.286;2024-02-23T00:43:19;97299.44;;;9.09;100.00
64827;BME280;51265;53.972;12.286;2024-02-23T00:45:45;97299.84;;;9.11;100.00
64827;BME280;51265;53.972;12.286;2024-02-23T00:48:11;97309.41;;;9.20;100.00
64827;BME280;51265;53.972;12.286;2024-02-23T00:50:38;97309.88;;;9.26;100.00
64827;BME280;51265;53.972;12.286;2024-02-23T00:53:05;97304.81;;;9.28;100.00
64827;BME280;51265;53.972;12.286;2024-02-23T00:55:31;97293.41;;;9.26;100.00
64827;BME280;51265;53.972;12.286;2024-02-23T00:57:57;97296.59;;;9.28;100.00
64827;BME280;51265;53.972;12.286;2024-02-23T01:00:23;97291.84;;;9.25;100.00
64827;BME280;51265;53.972;12.286;2024-02-23T01:02:49;97302.81;;;9.25;100.00
64827;BME280;51265;53.972;12.286;2024-02-23T01:05:17;97327.19;;;9.30;100.00
64827;BME280;51265;53.972;12.286;2024-02-23T01:07:43;97301.75;;;9.33;100.00
64827;BME280;51265;53.972;12.286;2024-02-23T01:10:09;97292.06;;;9.13;100.00
64827;BME280;51265;53.972;12.286;2024-02-23T01:12:35;97269.34;;;8.89;100.00
64827;BME280;51265;53.972;12.286;2024-02-23T01:15:02;97251.13;;;8.78;100.00
64827;BME280;51265;53.972;12.286;2024-02-23T01:17:28;97235.25;;;8.64;100.00
64827;BME280;51265;53.972;12.286;2024-02-23T01:19:54;97197.09;;;8.55;100.00
64827;BME280;51265;53.972;12.286;2024-02-23T01:22:21;97182.22;;;8.56;100.00
64827;BME280;51265;53.972;12.286;2024-02-23T01:24:47;97155.06;;;8.47;100.00
64827;BME280;51265;53.972;12.286;2024-02-23T01:27:15;97118.69;;;8.51;100.00
64827;BME280;51265;53.972;12.286;2024-02-23T01:29:41;97106.53;;;8.52;100.00
64827;BME280;51265;53.972;12.286;2024-02-23T01:32:07;97068.94;;;8.52;100.00
64827;BME280;51265;53.972;12.286;2024-02-23T01:34:33;97043.91;;;8.54;100.00
64827;BME280;51265;53.972;12.286;2024-02-23T01:37:00;97036.91;;;8.60;100.00
64827;BME280;51265;53.972;12.286;2024-02-23T01:39:26;97056.59;;;8.69;99.27
64827;BME280;51265;53.972;12.286;2024-02-23T01:41:52;97052.72;;;8.70;97.68
64827;BME280;51265;53.972;12.286;2024-02-23T01:44:20;97014.03;;;8.79;95.76
64827;BME280;51265;53.972;12.286;2024-02-23T01:46:49;97032.50;;;8.85;95.26
64827;BME280;51265;53.972;12.286;2024-02-23T01:49:16;97015.22;;;8.81;95.06
64827;BME280;51265;53.972;12.286;2024-02-23T01:51:43;97042.25;;;8.79;96.05
64827;BME280;51265;53.972;12.286;2024-02-23T01:54:09;97040.91;;;8.66;96.40
64827;BME280;51265;53.972;12.286;2024-02-23T01:56:36;97054.19;;;8.64;97.52
64827;BME280;51265;53.972;12.286;2024-02-23T01:59:03;97037.56;;;8.50;95.89
64827;BME280;51265;53.972;12.286;2024-02-23T02:01:30;97044.13;;;8.41;95.33
64827;BME280;51265;53.972;12.286;2024-02-23T02:03:58;97042.91;;;8.39;92.38
64827;BME280;51265;53.972;12.286;2024-02-23T02:06:24;97031.31;;;8.53;90.79
64827;BME280;51265;53.972;12.286;2024-02-23T02:08:50;97036.06;;;8.56;89.88
64827;BME280;51265;53.972;12.286;2024-02-23T02:11:17;97023.38;;;8.44;88.56
64827;BME280;51265;53.972;12.286;2024-02-23T02:13:43;97013.00;;;8.30;87.64
64827;BME280;51265;53.972;12.286;2024-02-23T02:16:09;96994.53;;;8.27;86.38
64827;BME280;51265;53.972;12.286;2024-02-23T02:18:37;96986.41;;;8.34;84.27
64827;BME280;51265;53.972;12.286;2024-02-23T02:21:03;96991.00;;;8.27;83.84
64827;BME280;51265;53.972;12.286;2024-02-23T02:23:29;96980.09;;;8.30;82.77
64827;BME280;51265;53.972;12.286;2024-02-23T02:25:56;96988.59;;;8.21;83.74
64827;BME280;51265;53.972;12.286;2024-02-23T02:28:24;96997.09;;;8.13;83.65
64827;BME280;51265;53.972;12.286;2024-02-23T02:30:51;97014.13;;;7.99;84.39
64827;BME280;51265;53.972;12.286;2024-02-23T02:33:18;97009.28;;;7.89;83.91
64827;BME280;51265;53.972;12.286;2024-02-23T02:35:45;97012.81;;;7.89;83.06
64827;BME280;51265;53.972;12.286;2024-02-23T02:38:11;96991.78;;;7.97;81.37
64827;BME280;51265;53.972;12.286;2024-02-23T02:40:38;96970.34;;;8.03;79.75
64827;BME280;51265;53.972;12.286;2024-02-23T02:43:04;96993.00;;;7.99;79.85
64827;BME280;51265;53.972;12.286;2024-02-23T02:45:30;96978.28;;;8.11;78.23
64827;BME280;51265;53.972;12.286;2024-02-23T02:47:56;96967.34;;;8.15;77.36
64827;BME280;51265;53.972;12.286;2024-02-23T02:50:22;96991.78;;;8.27;76.70
64827;BME280;51265;53.972;12.286;2024-02-23T02:52:49;96995.06;;;8.36;76.33
64827;BME280;51265;53.972;12.286;2024-02-23T02:55:15;96997.31;;;8.31;76.59
64827;BME280;51265;53.972;12.286;2024-02-23T02:57:41;97019.31;;;8.34;77.49
64827;BME280;51265;53.972;12.286;2024-02-23T03:00:10;97051.69;;;8.25;77.86
64827;BME280;51265;53.972;12.286;2024-02-23T03:02:37;97050.53;;;8.26;77.51
64827;BME280;51265;53.972;12.286;2024-02-23T03:05:04;97082.69;;;8.29;78.12
64827;BME280;51265;53.972;12.286;2024-02-23T03:07:30;97103.84;;;8.29;78.40
64827;BME280;51265;53.972;12.286;2024-02-23T03:09:56;97135.97;;;8.05;79.65
64827;BME280;51265;53.972;12.286;2024-02-23T03:12:23;97235.94;;;7.11;85.33
64827;BME280;51265;53.972;12.286;2024-02-23T03:14:49;97383.56;;;6.28;95.77
64827;BME280;51265;53.972;12.286;2024-02-23T03:17:15;97459.97;;;5.60;100.00
64827;BME280;51265;53.972;12.286;2024-02-23T03:19:42;97501.38;;;5.37;100.00
64827;BME280;51265;53.972;12.286;2024-02-23T03:22:08;97536.63;;;5.30;100.00
64827;BME280;51265;53.972;12.286;2024-02-23T03:24:34;97548.38;;;5.10;100.00
64827;BME280;51265;53.972;12.286;2024-02-23T03:27:00;97579.41;;;5.05;100.00
64827;BME280;51265;53.972;12.286;2024-02-23T03:29:26;97612.19;;;4.84;100.00
64827;BME280;51265;53.972;12.286;2024-02-23T03:31:56;97632.41;;;4.83;100.00
64827;BME280;51265;53.972;12.286;2024-02-23T03:34:22;97619.63;;;4.75;100.00
64827;BME280;51265;53.972;12.286;2024-02-23T03:36:48;97647.63;;;4.63;100.00
64827;BME280;51265;53.972;12.286;2024-02-23T03:39:15;97667.47;;;4.52;100.00
64827;BME280;51265;53.972;12.286;2024-02-23T03:41:41;97682.53;;;4.49;100.00
64827;BME280;51265;53.972;12.286;2024-02-23T03:44:07;97685.72;;;4.51;100.00
64827;BME280;51265;53.972;12.286;2024-02-23T03:46:33;97694.50;;;4.57;100.00
64827;BME280;51265;53.972;12.286;2024-02-23T03:49:00;97693.03;;;4.59;100.00
64827;BME280;51265;53.972;12.286;2024-02-23T03:51:27;97713.84;;;4.64;100.00
64827;BME280;51265;53.972;12.286;2024-02-23T03:53:53;97712.34;;;4.75;100.00
64827;BME280;51265;53.972;12.286;2024-02-23T03:56:19;97705.50;;;4.69;100.00
64827;BME280;51265;53.972;12.286;2024-02-23T03:58:45;97731.34;;;4.63;100.00
64827;BME280;51265;53.972;12.286;2024-02-23T04:01:11;97734.56;;;4.65;100.00
64827;BME280;51265;53.972;12.286;2024-02-23T04:03:37;97733.63;;;4.61;100.00
64827;BME280;51265;53.972;12.286;2024-02-23T04:06:04;97749.22;;;4.52;100.00
64827;BME280;51265;53.972;12.286;2024-02-23T04:08:30;97745.81;;;4.55;100.00
64827;BME280;51265;53.972;12.286;2024-02-23T04:10:57;97749.47;;;4.59;100.00
64827;BME280;51265;53.972;12.286;2024-02-23T04:13:23;97761.47;;;4.66;100.00
64827;BME280;51265;53.972;12.286;2024-02-23T04:15:50;97767.78;;;4.58;100.00
64827;BME280;51265;53.972;12.286;2024-02-23T04:18:16;97784.41;;;4.65;100.00
64827;BME280;51265;53.972;12.286;2024-02-23T04:20:42;97780.09;;;4.64;100.00
64827;BME280;51265;53.972;12.286;2024-02-23T04:23:08;97809.75;;;4.66;100.00
64827;BME280;51265;53.972;12.286;2024-02-23T04:25:34;97810.19;;;4.68;100.00
64827;BME280;51265;53.972;12.286;2024-02-23T04:28:01;97817.94;;;4.66;100.00
64827;BME280;51265;53.972;12.286;2024-02-23T04:30:27;97824.97;;;4.67;100.00
64827;BME280;51265;53.972;12.286;2024-02-23T04:32:53;97841.50;;;4.62;100.00
64827;BME280;51265;53.972;12.286;2024-02-23T04:35:19;97834.94;;;4.63;100.00
64827;BME280;51265;53.972;12.286;2024-02-23T04:37:45;97847.44;;;4.64;100.00
64827;BME280;51265;53.972;12.286;2024-02-23T04:40:12;97865.41;;;4.65;100.00
64827;BME280;51265;53.972;12.286;2024-02-23T04:42:38;97864.47;;;4.61;100.00
64827;BME280;51265;53.972;12.286;2024-02-23T04:45:05;97861.69;;;4.69;100.00
64827;BME280;51265;53.972;12.286;2024-02-23T04:47:31;97866.69;;;4.59;100.00
64827;BME280;51265;53.972;12.286;2024-02-23T04:49:58;97879.72;;;4.53;100.00
64827;BME280;51265;53.972;12.286;2024-02-23T04:52:25;97895.28;;;4.53;100.00
64827;BME280;51265;53.972;12.286;2024-02-23T04:54:51;97901.69;;;4.57;100.00
64827;BME280;51265;53.972;12.286;2024-02-23T04:57:17;97899.56;;;4.62;100.00
64827;BME280;51265;53.972;12.286;2024-02-23T04:59:43;97900.34;;;4.63;100.00
64827;BME280;51265;53.972;12.286;2024-02-23T05:02:09;97915.94;;;4.54;100.00
64827;BME280;51265;53.972;12.286;2024-02-23T05:04:36;97918.34;;;4.46;100.00
64827;BME280;51265;53.972;12.286;2024-02-23T05:07:02;97927.81;;;4.49;100.00
64827;BME280;51265;53.972;12.286;2024-02-23T05:09:28;97943.81;;;4.59;100.00
64827;BME280;51265;53.972;12.286;2024-02-23T05:11:55;97944.63;;;4.60;100.00
64827;BME280;51265;53.972;12.286;2024-02-23T05:14:21;97946.88;;;4.58;100.00
64827;BME280;51265;53.972;12.286;2024-02-23T05:16:47;97939.53;;;4.49;100.00
64827;BME280;51265;53.972;12.286;2024-02-23T05:19:13;97945.94;;;4.54;100.00
64827;BME280;51265;53.972;12.286;2024-02-23T05:21:39;97942.38;;;4.62;100.00
64827;BME280;51265;53.972;12.286;2024-02-23T05:24:05;97928.44;;;4.55;100.00
64827;BME280;51265;53.972;12.286;2024-02-23T05:26:32;97931.84;;;4.52;100.00
64827;BME280;51265;53.972;12.286;2024-02-23T05:28:58;97945.28;;;4.57;100.00
64827;BME280;51265;53.972;12.286;2024-02-23T05:31:48;97944.03;;;4.45;100.00
64827;BME280;51265;53.972;12.286;2024-02-23T05:34:15;97951.06;;;4.46;100.00
64827;BME280;51265;53.972;12.286;2024-02-23T05:36:42;97946.25;;;4.52;100.00
64827;BME280;51265;53.972;12.286;2024-02-23T05:39:08;97940.78;;;4.61;100.00
64827;BME280;51265;53.972;12.286;2024-02-23T05:41:36;97930.34;;;4.63;100.00
64827;BME280;51265;53.972;12.286;2024-02-23T05:44:03;97927.16;;;4.61;100.00
64827;BME280;51265;53.972;12.286;2024-02-23T05:46:35;97932.59;;;4.61;100.00
64827;BME280;51265;53.972;12.286;2024-02-23T05:49:02;97921.88;;;4.56;100.00
64827;BME280;51265;53.972;12.286;2024-02-23T05:51:29;97933.59;;;4.56;100.00
64827;BME280;51265;53.972;12.286;2024-02-23T05:53:55;97948.47;;;4.59;100.00
64827;BME280;51265;53.972;12.286;2024-02-23T05:56:21;97944.47;;;4.65;100.00
64827;BME280;51265;53.972;12.286;2024-02-23T05:58:48;97954.06;;;4.71;100.00
64827;BME280;51265;53.972;12.286;2024-02-23T06:01:14;97955.47;;;4.86;100.00
64827;BME280;51265;53.972;12.286;2024-02-23T06:03:40;97942.47;;;4.83;100.00
64827;BME280;51265;53.972;12.286;2024-02-23T06:06:07;97971.50;;;4.87;100.00
64827;BME280;51265;53.972;12.286;2024-02-23T06:08:35;97988.81;;;4.91;100.00
64827;BME280;51265;53.972;12.286;2024-02-23T06:11:03;97969.91;;;4.86;100.00
64827;BME280;51265;53.972;12.286;2024-02-23T06:13:30;97985.31;;;4.82;100.00
64827;BME280;51265;53.972;12.286;2024-02-23T06:15:56;98003.44;;;4.78;100.00
64827;BME280;51265;53.972;12.286;2024-02-23T06:18:22;98000.91;;;4.73;100.00
64827;BME280;51265;53.972;12.286;2024-02-23T06:20:49;98018.84;;;4.83;100.00
64827;BME280;51265;53.972;12.286;2024-02-23T06:23:16;97996.41;;;4.68;100.00
64827;BME280;51265;53.972;12.286;2024-02-23T06:25:43;98006.84;;;4.58;100.00
64827;BME280;51265;53.972;12.286;2024-02-23T06:28:12;98015.34;;;4.65;100.00
64827;BME280;51265;53.972;12.286;2024-02-23T06:30:38;98026.56;;;4.63;100.00
64827;BME280;51265;53.972;12.286;2024-02-23T06:33:05;98041.16;;;4.59;100.00
64827;BME280;51265;53.972;12.286;2024-02-23T06:35:31;98054.16;;;4.62;100.00
64827;BME280;51265;53.972;12.286;2024-02-23T06:37:57;98055.44;;;4.64;100.00
64827;BME280;51265;53.972;12.286;2024-02-23T06:40:24;98054.94;;;4.62;100.00
64827;BME280;51265;53.972;12.286;2024-02-23T06:42:50;98071.63;;;4.61;100.00
64827;BME280;51265;53.972;12.286;2024-02-23T06:45:16;98076.75;;;4.71;100.00
64827;BME280;51265;53.972;12.286;2024-02-23T06:47:44;98075.16;;;4.70;100.00
64827;BME280;51265;53.972;12.286;2024-02-23T06:50:10;98079.66;;;4.66;100.00
64827;BME280;51265;53.972;12.286;2024-02-23T06:52:36;98085.09;;;4.66;100.00
64827;BME280;51265;53.972;12.286;2024-02-23T06:55:03;98081.25;;;4.67;100.00
64827;BME280;51265;53.972;12.286;2024-02-23T06:57:30;98082.53;;;4.61;100.00
64827;BME280;51265;53.972;12.286;2024-02-23T06:59:57;98084.47;;;4.52;100.00
64827;BME280;51265;53.972;12.286;2024-02-23T07:02:23;98083.81;;;4.37;100.00
64827;BME280;51265;53.972;12.286;2024-02-23T07:04:49;98082.22;;;4.36;100.00
64827;BME280;51265;53.972;12.286;2024-02-23T07:07:15;98073.88;;;4.41;100.00
64827;BME280;51265;53.972;12.286;2024-02-23T07:09:41;98093.91;;;4.54;100.00
64827;BME280;51265;53.972;12.286;2024-02-23T07:12:08;98095.22;;;4.65;100.00
64827;BME280;51265;53.972;12.286;2024-02-23T07:14:36;98086.22;;;4.65;100.00
64827;BME280;51265;53.972;12.286;2024-02-23T07:17:02;98093.75;;;4.68;100.00
64827;BME280;51265;53.972;12.286;2024-02-23T07:19:28;98092.00;;;4.63;100.00
64827;BME280;51265;53.972;12.286;2024-02-23T07:21:55;98083.50;;;4.65;100.00
64827;BME280;51265;53.972;12.286;2024-02-23T07:24:21;98085.56;;;4.68;100.00
64827;BME280;51265;53.972;12.286;2024-02-23T07:26:47;98100.81;;;4.69;100.00
64827;BME280;51265;53.972;12.286;2024-02-23T07:29:14;98101.28;;;4.71;100.00
64827;BME280;51265;53.972;12.286;2024-02-23T07:31:40;98096.63;;;4.80;100.00
64827;BME280;51265;53.972;12.286;2024-02-23T07:34:06;98081.91;;;4.81;100.00
64827;BME280;51265;53.972;12.286;2024-02-23T07:36:32;98097.56;;;4.93;100.00
64827;BME280;51265;53.972;12.286;2024-02-23T07:38:58;98085.22;;;4.95;100.00
64827;BME280;51265;53.972;12.286;2024-02-23T07:41:25;98093.75;;;4.85;100.00
64827;BME280;51265;53.972;12.286;2024-02-23T07:43:51;98101.94;;;4.85;100.00
64827;BME280;51265;53.972;12.286;2024-02-23T07:46:17;98093.59;;;4.90;100.00
64827;BME280;51265;53.972;12.286;2024-02-23T07:48:43;98099.38;;;4.97;100.00
64827;BME280;51265;53.972;12.286;2024-02-23T07:51:09;98096.63;;;4.97;100.00
64827;BME280;51265;53.972;12.286;2024-02-23T07:53:35;98103.69;;;4.98;100.00
64827;BME280;51265;53.972;12.286;2024-02-23T07:56:02;98115.41;;;4.99;100.00
64827;BME280;51265;53.972;12.286;2024-02-23T07:58:28;98118.75;;;5.05;100.00
64827;BME280;51265;53.972;12.286;2024-02-23T08:00:54;98126.75;;;5.10;100.00
64827;BME280;51265;53.972;12.286;2024-02-23T08:03:20;98136.72;;;5.14;100.00
64827;BME280;51265;53.972;12.286;2024-02-23T08:05:47;98162.38;;;5.22;100.00
64827;BME280;51265;53.972;12.286;2024-02-23T08:08:13;98161.88;;;5.37;100.00
64827;BME280;51265;53.972;12.286;2024-02-23T08:10:39;98159.63;;;5.48;100.00
64827;BME280;51265;53.972;12.286;2024-02-23T08:13:05;98149.34;;;5.45;100.00
64827;BME280;51265;53.972;12.286;2024-02-23T08:15:32;98145.13;;;5.47;100.00
64827;BME280;51265;53.972;12.286;2024-02-23T08:17:58;98142.06;;;5.58;100.00
64827;BME280;51265;53.972;12.286;2024-02-23T08:20:24;98163.41;;;5.73;100.00
64827;BME280;51265;53.972;12.286;2024-02-23T08:22:50;98159.84;;;5.81;100.00
64827;BME280;51265;53.972;12.286;2024-02-23T08:25:16;98150.97;;;5.84;100.00
64827;BME280;51265;53.972;12.286;2024-02-23T08:27:43;98150.97;;;5.84;100.00
64827;BME280;51265;53.972;12.286;2024-02-23T08:30:09;98158.47;;;6.05;100.00
64827;BME280;51265;53.972;12.286;2024-02-23T08:32:36;98146.28;;;5.93;100.00
64827;BME280;51265;53.972;12.286;2024-02-23T08:35:03;98164.19;;;6.20;98.89
64827;BME280;51265;53.972;12.286;2024-02-23T08:37:29;98155.50;;;6.48;97.72
64827;BME280;51265;53.972;12.286;2024-02-23T08:39:55;98145.97;;;6.75;95.97
64827;BME280;51265;53.972;12.286;2024-02-23T08:42:22;98130.22;;;6.72;94.05
64827;BME280;51265;53.972;12.286;2024-02-23T08:44:48;98125.16;;;6.62;93.25
64827;BME280;51265;53.972;12.286;2024-02-23T08:47:14;98110.28;;;6.51;92.74
64827;BME280;51265;53.972;12.286;2024-02-23T08:49:41;98107.69;;;6.54;91.71
64827;BME280;51265;53.972;12.286;2024-02-23T08:52:07;98113.00;;;6.51;92.50
64827;BME280;51265;53.972;12.286;2024-02-23T08:54:33;98114.28;;;6.53;91.12
64827;BME280;51265;53.972;12.286;2024-02-23T08:56:59;98119.41;;;6.55;91.88
64827;BME280;51265;53.972;12.286;2024-02-23T08:59:25;98116.81;;;6.37;91.07
64827;BME280;51265;53.972;12.286;2024-02-23T09:01:51;98125.00;;;6.37;90.96
64827;BME280;51265;53.972;12.286;2024-02-23T09:04:17;98141.94;;;6.52;90.90
64827;BME280;51265;53.972;12.286;2024-02-23T09:06:44;98147.56;;;6.76;90.37
64827;BME280;51265;53.972;12.286;2024-02-23T09:09:10;98100.47;;;6.49;87.88
64827;BME280;51265;53.972;12.286;2024-02-23T09:11:36;98109.41;;;6.59;88.15
64827;BME280;51265;53.972;12.286;2024-02-23T09:14:03;98122.16;;;6.55;87.98
64827;BME280;51265;53.972;12.286;2024-02-23T09:16:30;98095.22;;;6.44;87.66
64827;BME280;51265;53.972;12.286;2024-02-23T09:18:56;98112.72;;;6.43;87.89
64827;BME280;51265;53.972;12.286;2024-02-23T09:21:22;98100.81;;;6.27;87.64
64827;BME280;51265;53.972;12.286;2024-02-23T09:23:49;98111.25;;;6.25;87.85
64827;BME280;51265;53.972;12.286;2024-02-23T09:26:15;98136.38;;;6.39;88.12
64827;BME280;51265;53.972;12.286;2024-02-23T09:28:42;98101.53;;;6.36;86.97
64827;BME280;51265;53.972;12.286;2024-02-23T09:31:08;98120.63;;;6.45;87.32
64827;BME280;51265;53.972;12.286;2024-02-23T09:33:35;98137.09;;;6.78;86.23
64827;BME280;51265;53.972;12.286;2024-02-23T09:36:01;98161.94;;;7.27;85.92
64827;BME280;51265;53.972;12.286;2024-02-23T09:38:28;98133.81;;;7.51;84.40
64827;BME280;51265;53.972;12.286;2024-02-23T09:40:54;98115.91;;;7.54;83.32
64827;BME280;51265;53.972;12.286;2024-02-23T09:43:21;98098.13;;;7.60;82.09
64827;BME280;51265;53.972;12.286;2024-02-23T09:45:52;98119.16;;;7.80;82.33
64827;BME280;51265;53.972;12.286;2024-02-23T09:48:19;98079.19;;;7.79;80.30
64827;BME280;51265;53.972;12.286;2024-02-23T09:50:47;98044.47;;;7.71;78.76
64827;BME280;51265;53.972;12.286;2024-02-23T09:53:14;98031.69;;;7.63;76.77
64827;BME280;51265;53.972;12.286;2024-02-23T09:55:42;98022.78;;;7.41;76.43
64827;BME280;51265;53.972;12.286;2024-02-23T09:58:10;98018.22;;;7.33;76.28
64827;BME280;51265;53.972;12.286;2024-02-23T10:00:38;98017.03;;;7.22;76.14
64827;BME280;51265;53.972;12.286;2024-02-23T10:03:05;98064.66;;;7.42;76.92
64827;BME280;51265;53.972;12.286;2024-02-23T10:05:31;98090.13;;;7.67;77.21
64827;BME280;51265;53.972;12.286;2024-02-23T10:07:58;98109.56;;;7.98;77.02
64827;BME280;51265;53.972;12.286;2024-02-23T10:10:29;98074.81;;;8.15;75.37
64827;BME280;51265;53.972;12.286;2024-02-23T10:12:58;98044.19;;;8.25;73.85
64827;BME280;51265;53.972;12.286;2024-02-23T10:15:24;98038.97;;;8.08;73.66
64827;BME280;51265;53.972;12.286;2024-02-23T10:17:51;98056.31;;;8.24;73.64
64827;BME280;51265;53.972;12.286;2024-02-23T10:20:20;98016.41;;;7.86;72.82
64827;BME280;51265;53.972;12.286;2024-02-23T10:22:46;98036.94;;;7.92;73.02
64827;BME280;51265;53.972;12.286;2024-02-23T10:25:14;98016.41;;;7.74;71.83
64827;BME280;51265;53.972;12.286;2024-02-23T10:27:41;98090.03;;;8.00;73.70
64827;BME280;51265;53.972;12.286;2024-02-23T10:30:11;98044.72;;;8.03;72.65
64827;BME280;51265;53.972;12.286;2024-02-23T10:32:38;98002.00;;;7.65;71.33
64827;BME280;51265;53.972;12.286;2024-02-23T10:35:10;98037.19;;;7.75;72.13
64827;BME280;51265;53.972;12.286;2024-02-23T10:37:36;98015.03;;;7.56;71.79
64827;BME280;51265;53.972;12.286;2024-02-23T10:40:03;98032.25;;;7.56;71.71
64827;BME280;51265;53.972;12.286;2024-02-23T10:42:33;98065.25;;;7.72;72.23
64827;BME280;51265;53.972;12.286;2024-02-23T10:45:01;98077.81;;;7.97;72.04
64827;BME280;51265;53.972;12.286;2024-02-23T10:47:30;98092.09;;;8.15;72.03
64827;BME280;51265;53.972;12.286;2024-02-23T10:50:00;98006.06;;;8.20;69.53
64827;BME280;51265;53.972;12.286;2024-02-23T10:52:27;98128.19;;;8.42;71.44
64827;BME280;51265;53.972;12.286;2024-02-23T10:54:55;98082.22;;;8.51;70.63
64827;BME280;51265;53.972;12.286;2024-02-23T10:57:22;98042.69;;;8.40;69.16
64827;BME280;51265;53.972;12.286;2024-02-23T10:59:48;98040.53;;;8.33;68.78
64827;BME280;51265;53.972;12.286;2024-02-23T11:02:18;98057.91;;;8.25;69.24
64827;BME280;51265;53.972;12.286;2024-02-23T11:04:47;98098.56;;;8.47;70.47
64827;BME280;51265;53.972;12.286;2024-02-23T11:07:19;98121.16;;;8.69;70.61
64827;BME280;51265;53.972;12.286;2024-02-23T11:09:51;98045.41;;;8.52;68.34
64827;BME280;51265;53.972;12.286;2024-02-23T11:12:25;98070.56;;;8.54;68.79
64827;BME280;51265;53.972;12.286;2024-02-23T11:14:59;98093.91;;;8.76;68.56
64827;BME280;51265;53.972;12.286;2024-02-23T11:17:27;98069.88;;;8.85;67.67
64827;BME280;51265;53.972;12.286;2024-02-23T11:19:55;98077.06;;;8.90;68.08
64827;BME280;51265;53.972;12.286;2024-02-23T11:22:26;98095.56;;;9.21;67.81
64827;BME280;51265;53.972;12.286;2024-02-23T11:24:53;98057.56;;;9.23;66.35
64827;BME280;51265;53.972;12.286;2024-02-23T11:27:21;98001.72;;;8.87;65.72
64827;BME280;51265;53.972;12.286;2024-02-23T11:30:04;97995.53;;;8.90;64.83
64827;BME280;51265;53.972;12.286;2024-02-23T11:32:42;97999.50;;;8.93;64.76
64827;BME280;51265;53.972;12.286;2024-02-23T11:35:14;97959.31;;;8.57;63.70
64827;BME280;51265;53.972;12.286;2024-02-23T11:37:49;98037.94;;;8.65;65.92
64827;BME280;51265;53.972;12.286;2024-02-23T11:40:17;98019.06;;;8.91;64.97
64827;BME280;51265;53.972;12.286;2024-02-23T11:42:43;98052.59;;;9.13;65.33
64827;BME280;51265;53.972;12.286;2024-02-23T11:45:10;98058.28;;;9.20;65.44
64827;BME280;51265;53.972;12.286;2024-02-23T11:47:37;97988.47;;;9.21;63.68
64827;BME280;51265;53.972;12.286;2024-02-23T11:50:07;98035.22;;;9.09;64.67
64827;BME280;51265;53.972;12.286;2024-02-23T11:52:34;98061.19;;;8.83;66.14
64827;BME280;51265;53.972;12.286;2024-02-23T11:55:00;98064.88;;;9.03;65.33
64827;BME280;51265;53.972;12.286;2024-02-23T11:57:27;98081.69;;;9.02;65.94
64827;BME280;51265;53.972;12.286;2024-02-23T11:59:54;98115.50;;;9.18;66.61
64827;BME280;51265;53.972;12.286;2024-02-23T12:02:20;98128.31;;;9.42;66.70
64827;BME280;51265;53.972;12.286;2024-02-23T12:04:47;98120.53;;;9.60;66.08
64827;BME280;51265;53.972;12.286;2024-02-23T12:07:13;98085.00;;;9.67;64.68
64827;BME280;51265;53.972;12.286;2024-02-23T12:09:41;98041.81;;;9.20;64.09
64827;BME280;51265;53.972;12.286;2024-02-23T12:12:08;98077.56;;;9.08;65.31
64827;BME280;51265;53.972;12.286;2024-02-23T12:14:36;98089.03;;;8.97;65.85
64827;BME280;51265;53.972;12.286;2024-02-23T12:17:03;98075.31;;;9.41;64.54
64827;BME280;51265;53.972;12.286;2024-02-23T12:19:32;98063.16;;;9.42;64.13
64827;BME280;51265;53.972;12.286;2024-02-23T12:22:06;98055.81;;;9.46;63.69
64827;BME280;51265;53.972;12.286;2024-02-23T12:24:32;98050.94;;;9.71;62.77
64827;BME280;51265;53.972;12.286;2024-02-23T12:26:58;98058.72;;;9.85;62.99
64827;BME280;51265;53.972;12.286;2024-02-23T12:29:24;97996.22;;;9.82;60.69
64827;BME280;51265;53.972;12.286;2024-02-23T12:31:51;98079.75;;;9.93;63.09
64827;BME280;51265;53.972;12.286;2024-02-23T12:34:18;98026.19;;;9.87;61.22
64827;BME280;51265;53.972;12.286;2024-02-23T12:36:46;98077.63;;;9.87;62.67
64827;BME280;51265;53.972;12.286;2024-02-23T12:39:12;98073.34;;;9.89;62.98
64827;BME280;51265;53.972;12.286;2024-02-23T12:41:39;98086.38;;;10.08;62.23
64827;BME280;51265;53.972;12.286;2024-02-23T12:44:05;98043.00;;;10.02;61.45
64827;BME280;51265;53.972;12.286;2024-02-23T12:46:32;98092.91;;;10.19;61.84
64827;BME280;51265;53.972;12.286;2024-02-23T12:48:58;98052.69;;;9.95;61.43
64827;BME280;51265;53.972;12.286;2024-02-23T12:51:25;98095.81;;;9.91;62.38
64827;BME280;51265;53.972;12.286;2024-02-23T12:53:52;98128.25;;;10.02;62.87